METAR AND TAF INFORMATION
METAR FOR WADD
ADDS - METARS form results

(0812 UTC 16 May 2022)
Data provider http://aviationweather.gov/metar/data/
 
METAR text: WADD 160800Z 12009KT 9999 FEW017 31/26 Q1008 NOSIG
Conditions at: WADD (BALI INTL , ID) observed 0800 UTC 16 May 2022
Temperature: 31.0°C (88°F)
Dewpoint: 26.0°C (79°F) [RH = 75%]
Pressure (altimeter): 29.76 inches Hg (1008.0 mb)
Winds: from the ESE (120 degrees) at 10 MPH (9 knots; 4.6 m/s)
Visibility: 6 or more miles (10+ km)
Ceiling: at least 12,000 feet AGL
Clouds: few clouds at 1700 feet AGL
Weather: no significant weather observed at this time

METAR text: WADD 160730Z 11010KT 9999 FEW017 31/26 Q1008 NOSIG
Conditions at: WADD (BALI INTL , ID) observed 0730 UTC 16 May 2022
Temperature: 31.0°C (88°F)
Dewpoint: 26.0°C (79°F) [RH = 75%]
Pressure (altimeter): 29.76 inches Hg (1008.0 mb)
Winds: from the ESE (110 degrees) at 12 MPH (10 knots; 5.1 m/s)
Visibility: 6 or more miles (10+ km)
Ceiling: at least 12,000 feet AGL
Clouds: few clouds at 1700 feet AGL
Weather: no significant weather observed at this time

Forecast for: WADD (BALI INTL , ID)
Text: TAF WADD 160500Z 1606/1706 13008KT 9999 SCT016
Forecast period: 0600 to 1600 UTC 16 May 2022
Forecast type: FROM: standard forecast or significant change
Winds: from the SE (130 degrees) at 9 MPH (8 knots; 4.1 m/s)
Visibility: 6 or more miles (10+ km)
Ceiling: at least 12,000 feet AGL
Clouds: scattered clouds at 1600 feet AGL
Weather: no significant weather forecast for this period
Text: BECMG 1616/1618 VRB05KT
Forecast period: 1600 UTC 16 May 2022 to 0600 UTC 17 May 2022
Forecast type: BECOMING: Conditions expected to become as follows by 1800 UTC 16 May 2022
Winds: variable direction winds at 6 MPH (5 knots; 2.6 m/s)
Visibility: 6 or more miles (10+ km)
Ceiling: at least 12,000 feet AGL
Clouds: scattered clouds at 1600 feet AGL
Weather: no significant weather forecast for this period

 AIRPORT MAP

 RUNWAY INFORMATION
Runway 09 Runway length 9790 ft Runway width 148 ft
Runway elevation 11 ft Runway displaced threshold 0 ft Runway heading 88
Runway 27 Runway length 9790 ft Runway width 148 ft
Runway elevation 12 ft Runway displaced threshold 0 ft Runway heading 268

 AIRPORT FREQUENCIES
Type APP Name DIRECTOR Frequency 119.7 MHZ
Type ATIS Name ATIS Frequency 126.2 MHZ
Type GND Name NGURAH GND Frequency 118.8 MHZ
Type INFO Name INFO Frequency 8.88 MHZ
Type TWR Name NGURAH TWR Frequency 118.1 MHZ
Type TMA Name RADAR Frequency 119.3 MHZ

 AIRPORT NEAR NAVIGATION AIDS
Type VOR-DME Name Bali Frequency 116200 KHZ
Type NDB Name Bali Frequency 230 KHZ





Powered by Virtual Airlines Manager

Maps by Rafael Santos